createdAt,value
2023-05-11T00:00:38.878Z,59.70
2023-05-11T00:03:06.244Z,60.29
2023-05-11T00:05:32.759Z,60.61
2023-05-11T00:07:59.096Z,60.40
2023-05-11T00:10:25.473Z,61.02
2023-05-11T00:12:51.858Z,60.81
2023-05-11T00:15:18.295Z,60.78
2023-05-11T00:17:45.298Z,60.68
2023-05-11T00:20:11.736Z,60.89
2023-05-11T00:22:39.094Z,60.60
2023-05-11T00:25:06.368Z,60.76
2023-05-11T00:27:32.825Z,60.60
2023-05-11T00:29:59.154Z,60.77
2023-05-11T00:32:25.496Z,60.81
2023-05-11T00:34:51.907Z,61.17
2023-05-11T00:37:18.221Z,61.29
2023-05-11T00:39:44.544Z,61.38
2023-05-11T00:42:11.380Z,61.73
2023-05-11T00:44:37.746Z,61.76
2023-05-11T00:47:04.657Z,61.76
2023-05-11T00:49:31.236Z,61.93
2023-05-11T00:51:57.814Z,61.79
2023-05-11T00:54:24.688Z,61.66
2023-05-11T00:56:51.859Z,61.64
2023-05-11T00:59:18.876Z,61.71
2023-05-11T01:01:45.510Z,61.79
2023-05-11T01:04:12.171Z,61.75
2023-05-11T01:06:51.696Z,61.38
2023-05-11T01:09:32.143Z,61.61
2023-05-11T01:12:13.471Z,61.44
2023-05-11T01:15:04.727Z,61.64
2023-05-11T01:17:42.686Z,61.76
2023-05-11T01:20:16.968Z,61.92
2023-05-11T01:23:10.885Z,61.87
2023-05-11T01:25:55.440Z,62.18
2023-05-11T01:29:03.584Z,61.83
2023-05-11T01:31:34.397Z,62.23
2023-05-11T01:34:06.323Z,61.93
2023-05-11T01:36:35.986Z,61.78
2023-05-11T01:39:08.033Z,61.58
2023-05-11T01:41:38.446Z,61.66
2023-05-11T01:44:08.589Z,61.44
2023-05-11T01:46:35.151Z,61.42
2023-05-11T01:49:07.414Z,61.16
2023-05-11T01:51:39.927Z,61.42
2023-05-11T01:54:08.486Z,61.34
2023-05-11T01:56:36.811Z,61.60
2023-05-11T01:59:04.051Z,61.25
2023-05-11T02:01:32.141Z,61.19
2023-05-11T02:04:00.888Z,61.35
2023-05-11T02:06:30.550Z,61.12
2023-05-11T02:08:59.413Z,61.06
2023-05-11T02:11:27.974Z,60.92
2023-05-11T02:13:58.318Z,61.07
2023-05-11T02:16:26.028Z,61.53
2023-05-11T02:18:54.103Z,61.62
2023-05-11T02:21:20.812Z,61.52
2023-05-11T02:23:49.652Z,61.48
2023-05-11T02:26:16.695Z,61.22
2023-05-11T02:28:43.881Z,61.36
2023-05-11T02:31:16.357Z,61.14
2023-05-11T02:33:48.901Z,61.18
2023-05-11T02:36:21.253Z,61.39
2023-05-11T02:38:49.010Z,61.72
2023-05-11T02:41:22.157Z,61.56
2023-05-11T02:43:52.390Z,61.78
2023-05-11T02:46:26.185Z,61.65
2023-05-11T02:48:57.634Z,61.94
2023-05-11T02:51:30.812Z,61.99
2023-05-11T02:53:59.214Z,62.18
2023-05-11T02:56:25.917Z,62.31
2023-05-11T02:58:52.492Z,62.10
2023-05-11T03:01:19.794Z,62.47
2023-05-11T03:03:46.408Z,62.52
2023-05-11T03:06:13.069Z,62.78
2023-05-11T03:08:41.822Z,62.51
2023-05-11T03:11:09.261Z,62.56
2023-05-11T03:13:36.026Z,62.81
2023-05-11T03:16:02.849Z,62.75
2023-05-11T03:18:31.092Z,62.74
2023-05-11T03:21:00.326Z,62.67
2023-05-11T03:23:27.217Z,62.69
2023-05-11T03:25:54.825Z,62.56
2023-05-11T03:28:22.733Z,62.46
2023-05-11T03:30:50.468Z,62.67
2023-05-11T03:33:16.808Z,62.94
2023-05-11T03:35:44.449Z,62.99
2023-05-11T03:38:12.679Z,62.95
2023-05-11T03:40:41.686Z,62.98
2023-05-11T03:43:11.260Z,62.83
2023-05-11T03:45:39.410Z,63.10
2023-05-11T03:48:06.766Z,63.39
2023-05-11T03:50:34.070Z,63.55
2023-05-11T03:53:00.897Z,63.44
2023-05-11T03:55:27.641Z,63.65
2023-05-11T03:57:54.072Z,64.12
2023-05-11T04:00:20.688Z,63.93
2023-05-11T04:02:47.313Z,64.22
2023-05-11T04:05:13.911Z,63.77
2023-05-11T04:07:40.300Z,63.91
2023-05-11T04:10:07.401Z,63.94
2023-05-11T04:12:34.048Z,64.35
2023-05-11T04:15:00.476Z,63.94
2023-05-11T04:17:26.854Z,64.34
2023-05-11T04:19:53.248Z,64.32
2023-05-11T04:22:19.632Z,64.30
2023-05-11T04:24:45.960Z,64.15
2023-05-11T04:27:12.321Z,64.32
2023-05-11T04:29:38.658Z,64.07
2023-05-11T04:32:05.083Z,63.84
2023-05-11T04:34:31.492Z,63.73
2023-05-11T04:36:57.823Z,63.93
2023-05-11T04:39:24.164Z,64.30
2023-05-11T04:41:50.497Z,64.23
2023-05-11T04:44:16.803Z,64.37
2023-05-11T04:46:43.221Z,64.22
2023-05-11T04:49:09.582Z,64.33
2023-05-11T04:51:36.104Z,64.37
2023-05-11T04:54:02.480Z,64.23
2023-05-11T04:56:28.822Z,64.27
2023-05-11T04:58:55.170Z,64.34
2023-05-11T05:01:21.625Z,64.50
2023-05-11T05:03:49.250Z,64.46
2023-05-11T05:06:15.599Z,64.17
2023-05-11T05:08:42.063Z,64.48
2023-05-11T05:11:08.465Z,64.52
2023-05-11T05:13:34.795Z,64.58
2023-05-11T05:16:01.278Z,64.48
2023-05-11T05:18:27.740Z,64.55
2023-05-11T05:20:54.217Z,64.38
2023-05-11T05:23:20.656Z,64.41
2023-05-11T05:25:47.209Z,64.66
2023-05-11T05:28:13.600Z,64.82
2023-05-11T05:30:40.112Z,64.80
2023-05-11T05:33:06.611Z,64.76
2023-05-11T05:35:33.048Z,64.59
2023-05-11T05:37:59.423Z,64.22
2023-05-11T05:40:25.816Z,64.11
2023-05-11T05:42:52.459Z,64.12
2023-05-11T05:45:18.805Z,64.32
2023-05-11T05:47:45.256Z,64.14
2023-05-11T05:50:11.888Z,63.80
2023-05-11T05:52:38.256Z,63.81
2023-05-11T05:55:04.981Z,63.28
2023-05-11T05:57:31.390Z,63.64
2023-05-11T05:59:57.837Z,63.22
2023-05-11T06:02:24.319Z,63.21
2023-05-11T06:04:50.952Z,62.68
2023-05-11T06:07:17.308Z,62.52
2023-05-11T06:09:43.689Z,62.03
2023-05-11T06:12:10.303Z,62.23
2023-05-11T06:14:36.788Z,62.00
2023-05-11T06:17:03.291Z,62.05
2023-05-11T06:19:29.626Z,61.84
2023-05-11T06:21:55.973Z,61.58
2023-05-11T06:24:22.396Z,61.44
2023-05-11T06:26:48.752Z,60.67
2023-05-11T06:29:15.222Z,60.39
2023-05-11T06:31:41.616Z,59.98
2023-05-11T06:34:09.311Z,59.83
2023-05-11T06:36:54.348Z,59.93
2023-05-11T06:39:20.715Z,60.20
2023-05-11T06:41:47.019Z,59.67
2023-05-11T06:44:13.511Z,60.30
2023-05-11T06:46:39.908Z,60.37
2023-05-11T06:49:07.812Z,60.38
2023-05-11T06:51:34.352Z,60.40
2023-05-11T06:54:00.941Z,60.67
2023-05-11T06:56:28.003Z,60.71
2023-05-11T06:58:54.835Z,61.19
2023-05-11T07:01:21.211Z,61.24
2023-05-11T07:03:49.093Z,61.73
2023-05-11T07:06:15.489Z,62.38
2023-05-11T07:08:42.161Z,62.08
2023-05-11T07:11:08.577Z,62.42
2023-05-11T07:13:34.907Z,62.79
2023-05-11T07:16:01.389Z,63.10
2023-05-11T07:18:27.752Z,63.16
2023-05-11T07:20:54.085Z,63.72
2023-05-11T07:23:20.474Z,64.08
2023-05-11T07:25:46.810Z,64.24
2023-05-11T07:28:13.121Z,64.27
2023-05-11T07:30:39.488Z,64.30
2023-05-11T07:33:06.687Z,64.57
2023-05-11T07:35:33.139Z,64.02
2023-05-11T07:37:59.534Z,64.10
2023-05-11T07:40:25.937Z,64.25
2023-05-11T07:42:52.292Z,63.86
2023-05-11T07:45:18.729Z,64.11
2023-05-11T07:47:45.372Z,64.14
2023-05-11T07:50:12.666Z,63.81
2023-05-11T07:52:39.440Z,63.91
2023-05-11T07:55:06.350Z,63.40
2023-05-11T07:57:32.687Z,62.89
2023-05-11T07:59:59.029Z,62.78
2023-05-11T08:02:25.470Z,62.31
2023-05-11T08:04:51.855Z,62.36
2023-05-11T08:07:18.249Z,62.04
2023-05-11T08:09:44.571Z,61.87
2023-05-11T08:12:10.957Z,61.26
2023-05-11T08:14:37.841Z,60.64
2023-05-11T08:17:04.189Z,60.35
2023-05-11T08:19:30.601Z,60.08
2023-05-11T08:21:56.937Z,59.82
2023-05-11T08:24:23.309Z,60.02
2023-05-11T08:26:49.788Z,60.54
2023-05-11T08:29:16.136Z,60.21
2023-05-11T08:31:42.696Z,60.43
2023-05-11T08:34:18.438Z,60.70
2023-05-11T08:36:46.746Z,60.21
2023-05-11T08:39:13.119Z,60.73
2023-05-11T08:41:39.528Z,60.63
2023-05-11T08:44:06.761Z,60.78
2023-05-11T08:46:35.586Z,60.67
2023-05-11T08:49:02.038Z,60.04
2023-05-11T08:51:28.789Z,59.51
2023-05-11T08:53:57.538Z,59.33
2023-05-11T08:56:25.957Z,59.35
2023-05-11T08:58:56.479Z,59.06
2023-05-11T09:01:23.685Z,58.70
2023-05-11T09:03:51.683Z,59.11
2023-05-11T09:06:18.550Z,58.86
2023-05-11T09:08:45.841Z,59.00
2023-05-11T09:11:12.636Z,59.40
2023-05-11T09:13:39.286Z,58.82
2023-05-11T09:16:11.300Z,58.77
2023-05-11T09:18:52.544Z,58.19
2023-05-11T09:21:19.802Z,58.36
2023-05-11T09:23:49.884Z,58.36
2023-05-11T09:26:28.322Z,57.53
2023-05-11T09:31:42.769Z,58.08
2023-05-11T09:34:20.414Z,58.45
2023-05-11T09:36:48.731Z,57.88
2023-05-11T09:39:29.277Z,57.52
2023-05-11T09:42:19.494Z,57.96
2023-05-11T09:44:46.780Z,57.88
2023-05-11T09:47:22.819Z,57.87
2023-05-11T09:49:49.207Z,57.78
2023-05-11T09:52:18.116Z,57.72
2023-05-11T09:54:51.186Z,57.80
2023-05-11T09:57:25.624Z,57.56
2023-05-11T09:59:52.819Z,57.15
2023-05-11T10:02:30.414Z,57.25
2023-05-11T10:04:59.321Z,57.10
2023-05-11T10:07:27.798Z,57.78
2023-05-11T10:09:56.250Z,57.19
2023-05-11T10:12:25.558Z,57.98
2023-05-11T10:14:56.279Z,57.75
2023-05-11T10:17:23.019Z,57.89
2023-05-11T10:19:50.099Z,58.47
2023-05-11T10:22:19.651Z,57.82
2023-05-11T10:24:46.795Z,57.74
2023-05-11T10:27:13.447Z,58.32
2023-05-11T10:29:39.983Z,58.97
2023-05-11T10:32:07.950Z,59.00
2023-05-11T10:34:34.377Z,58.61
2023-05-11T10:37:01.704Z,58.26
2023-05-11T10:39:29.978Z,57.87
2023-05-11T10:42:12.831Z,57.91
2023-05-11T10:45:05.790Z,57.63
2023-05-11T10:48:06.681Z,57.86
2023-05-11T10:50:52.115Z,57.68
2023-05-11T10:53:21.382Z,58.63
2023-05-11T10:56:07.226Z,57.99
2023-05-11T10:59:07.557Z,57.67
2023-05-11T11:01:40.903Z,56.83
2023-05-11T11:04:14.209Z,56.40
2023-05-11T11:06:43.593Z,56.07
2023-05-11T11:09:15.609Z,55.62
2023-05-11T11:11:46.863Z,55.74
2023-05-11T11:14:17.926Z,56.14
2023-05-11T11:17:15.253Z,56.61
2023-05-11T11:19:42.407Z,57.14
2023-05-11T11:22:34.280Z,57.50
2023-05-11T11:25:08.216Z,57.39
2023-05-11T11:27:40.852Z,57.44
2023-05-11T11:30:30.573Z,56.60
2023-05-11T11:33:06.891Z,55.96
2023-05-11T11:35:39.380Z,55.81
2023-05-11T11:38:13.455Z,55.72
2023-05-11T11:43:19.864Z,55.13
2023-05-11T11:45:56.114Z,55.28
2023-05-11T11:48:33.209Z,55.36
2023-05-11T11:51:08.458Z,56.03
2023-05-11T11:53:38.209Z,55.82
2023-05-11T11:56:05.818Z,56.16
2023-05-11T11:58:41.567Z,56.13
2023-05-11T12:01:08.790Z,56.91
2023-05-11T12:03:39.888Z,56.66
2023-05-11T12:06:08.942Z,56.15
2023-05-11T12:08:36.949Z,57.23
2023-05-11T12:11:05.877Z,55.98
2023-05-11T12:13:33.448Z,56.37
2023-05-11T12:16:10.380Z,55.52
2023-05-11T12:18:36.844Z,55.64
2023-05-11T12:21:03.402Z,56.20
2023-05-11T12:23:30.454Z,56.81
2023-05-11T12:26:06.912Z,55.37
2023-05-11T12:28:33.585Z,55.95
2023-05-11T12:31:00.849Z,56.22
2023-05-11T12:33:27.517Z,56.32
2023-05-11T12:35:55.849Z,55.69
2023-05-11T12:38:22.391Z,55.59
2023-05-11T12:40:53.257Z,55.57
2023-05-11T12:43:21.486Z,55.28
2023-05-11T12:45:48.696Z,54.81
2023-05-11T12:48:15.742Z,55.74
2023-05-11T12:50:46.855Z,55.58
2023-05-11T12:53:15.002Z,55.91
2023-05-11T12:55:41.899Z,56.38
2023-05-11T12:58:15.957Z,56.19
2023-05-11T13:00:57.508Z,55.94
2023-05-11T13:03:28.809Z,56.01
2023-05-11T13:06:08.074Z,56.57
2023-05-11T13:08:39.191Z,55.82
2023-05-11T13:11:22.809Z,55.86
2023-05-11T13:13:49.921Z,55.88
2023-05-11T13:16:26.368Z,55.50
2023-05-11T13:19:04.207Z,55.41
2023-05-11T13:21:33.101Z,55.51
2023-05-11T13:24:00.444Z,55.37
2023-05-11T13:26:30.352Z,54.76
2023-05-11T13:29:09.274Z,55.12
2023-05-11T13:31:44.729Z,55.21
2023-05-11T13:34:11.778Z,54.75
2023-05-11T13:36:38.747Z,54.50
2023-05-11T13:39:05.602Z,54.50
2023-05-11T13:41:32.277Z,54.43
2023-05-11T13:43:58.656Z,54.96
2023-05-11T13:46:25.088Z,54.47
2023-05-11T13:48:51.588Z,54.61
2023-05-11T13:51:20.315Z,54.39
2023-05-11T13:53:46.961Z,54.31
2023-05-11T13:56:13.742Z,54.55
2023-05-11T13:58:40.146Z,54.92
2023-05-11T14:01:08.597Z,54.70
2023-05-11T14:03:35.355Z,54.14
2023-05-11T14:06:02.983Z,53.96
2023-05-11T14:08:29.442Z,54.07
2023-05-11T14:10:55.982Z,54.62
2023-05-11T14:13:22.423Z,54.41
2023-05-11T14:15:48.780Z,55.26
2023-05-11T14:18:15.239Z,55.05
2023-05-11T14:20:42.389Z,55.55
2023-05-11T14:23:08.936Z,55.23
2023-05-11T14:25:36.328Z,55.56
2023-05-11T14:28:03.186Z,55.99
2023-05-11T14:30:29.621Z,56.46
2023-05-11T14:32:56.195Z,56.34
2023-05-11T14:35:22.598Z,56.15
2023-05-11T14:37:49.154Z,56.13
2023-05-11T14:40:15.484Z,55.98
2023-05-11T14:42:42.658Z,56.45
2023-05-11T14:45:09.598Z,56.09
2023-05-11T14:47:36.078Z,56.58
2023-05-11T14:50:02.829Z,56.57
2023-05-11T14:52:29.169Z,56.93
2023-05-11T14:54:55.510Z,57.36
2023-05-11T14:57:22.208Z,57.48
2023-05-11T14:59:58.970Z,57.40
2023-05-11T15:02:26.296Z,57.43
2023-05-11T15:04:52.755Z,57.32
2023-05-11T15:07:19.096Z,58.25
2023-05-11T15:09:45.459Z,58.23
2023-05-11T15:12:11.791Z,58.58
2023-05-11T15:14:38.118Z,58.87
2023-05-11T15:17:04.574Z,58.99
2023-05-11T15:19:31.087Z,59.29
2023-05-11T15:21:57.399Z,59.07
2023-05-11T15:24:23.809Z,59.61
2023-05-11T15:26:50.278Z,59.84
2023-05-11T15:29:16.720Z,59.74
2023-05-11T15:31:43.304Z,60.47
2023-05-11T15:34:10.030Z,59.99
2023-05-11T15:36:36.363Z,60.25
2023-05-11T15:39:02.810Z,60.52
2023-05-11T15:41:29.226Z,60.43
2023-05-11T15:43:55.562Z,60.22
2023-05-11T15:46:22.491Z,60.35
2023-05-11T15:48:49.077Z,59.94
2023-05-11T15:51:15.568Z,60.61
2023-05-11T15:53:41.950Z,59.91
2023-05-11T15:56:09.460Z,60.29
2023-05-11T15:58:38.134Z,59.81
2023-05-11T16:01:04.675Z,59.37
2023-05-11T16:03:31.350Z,59.76
2023-05-11T16:05:57.839Z,60.08
2023-05-11T16:08:24.236Z,60.96
2023-05-11T16:10:51.623Z,60.94
2023-05-11T16:13:18.006Z,61.25
2023-05-11T16:15:44.376Z,61.45
2023-05-11T16:18:10.750Z,61.84
2023-05-11T16:20:37.790Z,61.95
2023-05-11T16:23:04.265Z,61.81
2023-05-11T16:25:30.649Z,62.00
2023-05-11T16:27:57.392Z,61.95
2023-05-11T16:30:25.276Z,62.25
2023-05-11T16:32:52.218Z,61.77
2023-05-11T16:35:18.779Z,62.23
2023-05-11T16:37:46.525Z,62.37
2023-05-11T16:40:12.969Z,61.98
2023-05-11T16:42:39.371Z,61.61
2023-05-11T16:45:06.435Z,61.51
2023-05-11T16:47:32.871Z,61.69
2023-05-11T16:49:59.339Z,61.85
2023-05-11T16:52:25.697Z,61.62
2023-05-11T16:54:52.009Z,61.40
2023-05-11T16:57:18.517Z,61.43
2023-05-11T16:59:44.865Z,61.55
2023-05-11T17:02:11.282Z,62.12
2023-05-11T17:04:37.766Z,61.90
2023-05-11T17:07:04.271Z,62.26
2023-05-11T17:09:30.935Z,62.75
2023-05-11T17:11:57.535Z,62.61
2023-05-11T17:14:23.886Z,62.58
2023-05-11T17:17:09.181Z,62.69
2023-05-11T17:19:35.520Z,62.51
2023-05-11T17:22:02.138Z,62.84
2023-05-11T17:24:28.944Z,62.69
2023-05-11T17:26:55.472Z,62.70
2023-05-11T17:29:29.711Z,63.02
2023-05-11T17:31:56.234Z,63.06
2023-05-11T17:34:25.766Z,62.63
2023-05-11T17:36:54.688Z,62.97
2023-05-11T17:39:21.299Z,62.67
2023-05-11T17:41:47.853Z,63.53
2023-05-11T17:44:14.196Z,63.70
2023-05-11T17:46:41.839Z,64.20
2023-05-11T17:49:08.247Z,64.39
2023-05-11T17:51:34.606Z,64.52
2023-05-11T17:54:01.103Z,64.33
2023-05-11T17:56:27.449Z,64.65
2023-05-11T17:58:53.835Z,64.88
2023-05-11T18:01:22.395Z,65.17
2023-05-11T18:03:49.084Z,64.98
2023-05-11T18:06:16.354Z,65.27
2023-05-11T18:08:42.742Z,64.45
2023-05-11T18:11:10.817Z,65.11
2023-05-11T18:13:37.168Z,64.91
2023-05-11T18:16:04.008Z,64.82
2023-05-11T18:18:30.576Z,65.04
2023-05-11T18:20:57.423Z,64.96
2023-05-11T18:23:24.097Z,65.22
2023-05-11T18:25:50.443Z,65.33
2023-05-11T18:28:16.761Z,65.51
2023-05-11T18:30:43.141Z,65.50
2023-05-11T18:33:09.478Z,65.32
2023-05-11T18:35:36.044Z,65.78
2023-05-11T18:38:04.567Z,65.92
2023-05-11T18:40:30.978Z,65.80
2023-05-11T18:42:57.385Z,66.09
2023-05-11T18:45:23.821Z,66.22
2023-05-11T18:47:51.360Z,66.64
2023-05-11T18:50:18.027Z,66.74
2023-05-11T18:52:44.745Z,66.59
2023-05-11T18:55:14.052Z,66.97
2023-05-11T18:57:40.522Z,67.23
2023-05-11T19:00:07.937Z,67.14
2023-05-11T19:02:34.578Z,67.57
2023-05-11T19:05:01.220Z,68.40
2023-05-11T19:07:28.017Z,68.15
2023-05-11T19:09:54.681Z,68.14
2023-05-11T19:12:21.042Z,68.71
2023-05-11T19:14:47.688Z,68.91
2023-05-11T19:17:14.089Z,69.03
2023-05-11T19:19:40.624Z,69.20
2023-05-11T19:22:09.061Z,69.46
2023-05-11T19:24:35.789Z,69.62
2023-05-11T19:27:07.085Z,69.91
2023-05-11T19:29:34.256Z,69.29
2023-05-11T19:32:00.797Z,69.35
2023-05-11T19:34:27.256Z,68.79
2023-05-11T19:36:53.599Z,69.41
2023-05-11T19:39:19.950Z,68.96
2023-05-11T19:41:46.295Z,69.21
2023-05-11T19:44:12.694Z,68.84
2023-05-11T19:46:45.500Z,68.97
2023-05-11T19:49:13.530Z,69.14
2023-05-11T19:51:39.892Z,69.16
2023-05-11T19:54:06.305Z,69.22
2023-05-11T19:56:35.512Z,69.21
2023-05-11T19:59:04.867Z,69.03
2023-05-11T20:01:31.443Z,69.51
2023-05-11T20:03:58.204Z,69.25
2023-05-11T20:06:26.437Z,69.30
2023-05-11T20:08:54.348Z,69.39
2023-05-11T20:11:22.277Z,69.84
2023-05-11T20:13:49.411Z,69.88
2023-05-11T20:16:16.466Z,69.85
2023-05-11T20:18:43.613Z,70.24
2023-05-11T20:21:11.393Z,70.01
2023-05-11T20:23:39.386Z,70.05
2023-05-11T20:26:07.177Z,70.31
2023-05-11T20:28:33.829Z,70.52
2023-05-11T20:31:00.561Z,70.88
2023-05-11T20:35:57.542Z,71.04
2023-05-11T20:38:23.927Z,70.77
2023-05-11T20:40:50.294Z,71.08
2023-05-11T20:43:16.707Z,71.20
2023-05-11T20:45:43.649Z,71.36
2023-05-11T20:48:10.715Z,71.02
2023-05-11T20:50:37.175Z,70.98
2023-05-11T20:53:03.625Z,71.30
2023-05-11T20:55:30.078Z,71.38
2023-05-11T20:57:57.442Z,71.64
2023-05-11T21:00:24.148Z,71.83
2023-05-11T21:02:50.783Z,71.35
2023-05-11T21:05:17.372Z,71.14
2023-05-11T21:07:43.745Z,71.27
2023-05-11T21:10:12.443Z,71.69
2023-05-11T21:12:39.042Z,71.52
2023-05-11T21:15:06.999Z,71.58
2023-05-11T21:17:33.614Z,71.72
2023-05-11T21:20:00.048Z,71.71
2023-05-11T21:22:26.368Z,71.56
2023-05-11T21:24:52.940Z,71.58
2023-05-11T21:27:19.278Z,71.52
2023-05-11T21:29:45.581Z,71.57
2023-05-11T21:32:12.035Z,71.70
2023-05-11T21:34:38.485Z,71.83
2023-05-11T21:37:04.848Z,71.85
2023-05-11T21:39:31.256Z,71.64
2023-05-11T21:41:57.586Z,71.92
2023-05-11T21:44:23.940Z,72.13
2023-05-11T21:46:50.691Z,72.12
2023-05-11T21:49:17.231Z,72.14
2023-05-11T21:51:43.680Z,72.20
2023-05-11T21:54:10.148Z,72.00
2023-05-11T21:56:36.832Z,71.92
2023-05-11T21:59:03.264Z,72.21
2023-05-11T22:01:29.664Z,72.32
2023-05-11T22:03:56.102Z,72.15
2023-05-11T22:06:22.493Z,72.04
2023-05-11T22:08:48.820Z,71.73
2023-05-11T22:11:15.186Z,71.67
2023-05-11T22:13:41.588Z,71.88
2023-05-11T22:16:07.984Z,72.16
2023-05-11T22:18:34.472Z,72.50
2023-05-11T22:21:00.852Z,72.29
2023-05-11T22:23:27.203Z,72.47
2023-05-11T22:25:53.780Z,72.28
2023-05-11T22:28:20.144Z,72.20
2023-05-11T22:30:46.542Z,72.20
2023-05-11T22:33:12.963Z,72.23
2023-05-11T22:35:39.857Z,72.27
2023-05-11T22:38:06.322Z,72.20
2023-05-11T22:40:32.628Z,72.16
2023-05-11T22:42:58.973Z,72.05
2023-05-11T22:45:25.448Z,72.25
2023-05-11T22:47:51.967Z,72.07
2023-05-11T22:50:18.679Z,71.86
2023-05-11T22:52:45.180Z,71.77
2023-05-11T22:55:11.695Z,72.06
2023-05-11T22:57:38.077Z,72.18
2023-05-11T23:00:05.473Z,72.24
2023-05-11T23:02:33.294Z,72.24
2023-05-11T23:04:59.735Z,72.53
2023-05-11T23:07:26.126Z,72.30
2023-05-11T23:09:52.894Z,72.42
2023-05-11T23:12:19.619Z,72.23
2023-05-11T23:14:45.998Z,72.29
2023-05-11T23:17:12.913Z,72.39
2023-05-11T23:19:39.419Z,72.09
2023-05-11T23:22:05.904Z,72.17
2023-05-11T23:24:32.313Z,72.11
2023-05-11T23:26:58.830Z,72.01
2023-05-11T23:29:26.859Z,72.35
2023-05-11T23:31:53.515Z,72.04
2023-05-11T23:34:19.908Z,72.65
2023-05-11T23:36:46.582Z,72.33
2023-05-11T23:39:13.097Z,72.28
2023-05-11T23:41:39.547Z,72.23
2023-05-11T23:44:05.994Z,72.40
2023-05-11T23:46:32.542Z,72.34
2023-05-11T23:48:58.901Z,72.49
2023-05-11T23:51:26.108Z,72.51
2023-05-11T23:53:52.688Z,72.56
2023-05-11T23:56:19.003Z,72.37
2023-05-11T23:58:46.113Z,72.77
